Nelsonville, Texas
Current Conditions -  °F | °C
As of 3:55 AM on Sunday 23 Nov 2014 (Local Time) from K11R Reporting Station
Scattered Clouds Scattered Clouds  
Wind Chill: 60°   Ceiling: Unl
Heat Index: 60°   Visibility: 7mi
Dew Point: 59°   Wind: 6mph
Humidity: 97%   Direction: 220°SW
Pressure: 29.65"   Gusts: NA
Location:  29.9944°N, 96.2595°W
Report Text: K11R 230955Z AUTO 22005KT 7SM SCT001 16/15 A2965 RMK AO2 T01550150
Loading
Personal Weather Stations






























Interactive Weather Map New forecast layout! Learn more

10-Day Weather Forecast

Advertisements
Track Severe Weather on mobile